Time;durP1;ratioP1;P1;durP2;ratioP2;P2;SDS_P1;SDS_P2;PMS_P1;PMS_P2;Temp;Humidity;BMP_temperature;BMP_pressure;BME280_temperature;BME280_humidity;BME280_pressure;Samples;Min_cycle;Max_cycle;Signal;HPM_P1;HPM_P2
2023/03/29 00:02:18;;;;;;;;;;;7.30;74.70;;;10.95;42.57;97953.28;5063403;28;19928;-47
2023/03/29 00:04:46;;;;;;;;;;;7.30;74.90;;;10.89;42.13;97949.41;5061814;28;19924;-48
2023/03/29 00:07:14;;;;;;;;;;;7.20;74.80;;;10.87;42.35;97940.75;5059808;28;19928;-45
2023/03/29 00:09:41;;;;;;;;;;;7.20;74.60;;;10.84;42.80;97935.75;5041678;28;19925;-44
2023/03/29 00:12:10;;;;;;;;;;;7.20;74.50;;;10.84;42.54;97946.41;5062089;28;19921;-46
2023/03/29 00:14:37;;;;;;;;;;;7.10;75.10;;;10.83;42.96;97932.22;5062807;28;19927;-45
2023/03/29 00:17:05;;;;;;;;;;;7.20;75.20;;;10.83;42.98;97934.06;5060784;28;19925;-44
2023/03/29 00:19:35;;;;;;;;;;;7.20;75.20;;;10.81;43.14;97925.38;5059266;28;19921;-46
2023/03/29 00:22:05;;;;;;;;;;;7.20;75.20;;;10.77;43.00;97916.88;5061139;28;19947;-50
2023/03/29 00:24:32;;;;;;;;;;;7.10;75.50;;;10.80;43.10;97915.75;5062943;28;20406;-48
2023/03/29 00:27:00;;;;;;;;;;;7.10;75.50;;;10.80;42.96;97916.56;5052035;28;19921;-47
2023/03/29 00:29:27;;;;;;;;;;;7.10;75.90;;;10.80;43.27;97927.22;5059283;28;20419;-44
2023/03/29 00:31:55;;;;;;;;;;;7.10;75.50;;;10.79;43.23;97925.53;5039357;28;20277;-44
2023/03/29 00:34:23;;;;;;;;;;;7.10;76.00;;;10.81;43.01;97914.72;5052984;28;19920;-50
2023/03/29 00:36:51;;;;;;;;;;;7.10;76.10;;;10.81;42.93;97920.06;5049748;28;19954;-51
2023/03/29 00:39:19;;;;;;;;;;;7.10;75.60;;;10.81;43.00;97923.56;5053146;28;19920;-45
2023/03/29 00:41:48;;;;;;;;;;;7.20;75.70;;;10.81;43.15;97923.56;5049449;28;19927;-46
2023/03/29 00:44:53;;;;;;;;;;;7.10;75.50;;;10.81;43.58;97915.56;5059421;28;20328;-46
2023/03/29 00:47:28;;;;;;;;;;;7.10;76.20;;;10.78;43.78;97913.22;5045663;28;19920;-46
2023/03/29 00:50:03;;;;;;;;;;;7.20;76.10;;;10.78;43.57;97907.06;5062475;28;20284;-44
2023/03/29 00:52:32;;;;;;;;;;;7.20;75.90;;;10.78;43.91;97915.06;5062835;28;19951;-46
2023/03/29 00:55:05;;;;;;;;;;;7.20;76.00;;;10.74;43.93;97901.22;5061758;28;19927;-44
2023/03/29 00:57:32;;;;;;;;;;;7.20;75.50;;;10.70;43.80;97905.19;5042462;28;20407;-44
2023/03/29 01:00:03;;;;;;;;;;;7.20;75.30;;;10.65;44.39;97902.16;5046076;28;20293;-45
2023/03/29 01:02:33;;;;;;;;;;;7.20;75.90;;;10.66;44.01;97898.47;5057362;28;19921;-47
2023/03/29 01:05:05;;;;;;;;;;;7.20;75.80;;;10.67;44.27;97896.66;5064128;28;19947;-47
2023/03/29 01:07:46;;;;;;;;;;;7.20;75.90;;;10.67;44.12;97891.34;5050985;28;19920;-44
2023/03/29 01:10:26;;;;;;;;;;;7.10;76.20;;;10.68;44.10;97875.19;5055919;28;19929;-47
2023/03/29 01:12:59;;;;;;;;;;;7.10;75.90;;;10.66;44.64;97873.69;5048818;28;19920;-46
2023/03/29 01:15:27;;;;;;;;;;;7.10;76.20;;;10.61;44.50;97869.66;5048614;28;19920;-49
2023/03/29 01:17:56;;;;;;;;;;;7.10;76.20;;;10.60;44.76;97873.34;5055933;28;19920;-44
2023/03/29 01:20:52;;;;;;;;;;;7.10;76.20;;;10.58;44.35;97867.31;5045181;28;20304;-48
2023/03/29 01:23:26;;;;;;;;;;;7.10;75.90;;;10.58;44.77;97869.97;5042744;28;19927;-46
2023/03/29 01:26:01;;;;;;;;;;;7.10;75.40;;;10.59;44.75;97862.84;5056554;28;20308;-47
2023/03/29 01:28:39;;;;;;;;;;;7.10;75.40;;;10.53;44.81;97855.47;5045142;28;19920;-47
2023/03/29 01:31:10;;;;;;;;;;;7.10;75.50;;;10.55;44.96;97845.50;5037344;28;20303;-47
2023/03/29 01:33:42;;;;;;;;;;;7.10;75.90;;;10.50;45.00;97842.47;5044404;28;19928;-47
2023/03/29 01:36:30;;;;;;;;;;;7.10;75.80;;;10.48;45.14;97842.63;5037405;28;19921;-48
2023/03/29 01:39:03;;;;;;;;;;;7.10;76.00;;;10.51;45.43;97834.34;5054820;28;20064;-44
2023/03/29 01:42:03;;;;;;;;;;;7.10;76.00;;;10.49;45.42;97827.47;5062397;28;19920;-44
2023/03/29 01:44:36;;;;;;;;;;;7.10;75.70;;;10.46;45.63;97817.97;5060737;28;19921;-45
2023/03/29 01:47:12;;;;;;;;;;;7.10;75.60;;;10.38;45.27;97809.94;5035871;28;19932;-46
2023/03/29 01:49:56;;;;;;;;;;;7.00;75.50;;;10.31;45.99;97804.41;5056478;28;19920;-45
2023/03/29 01:52:29;;;;;;;;;;;7.00;75.50;;;10.31;45.91;97808.88;5048979;28;19927;-46
2023/03/29 01:55:08;;;;;;;;;;;7.00;75.90;;;10.29;45.83;97803.69;5047133;28;19928;-49
2023/03/29 01:57:38;;;;;;;;;;;7.00;76.00;;;10.29;45.77;97798.38;5048039;28;20299;-46
2023/03/29 02:00:09;;;;;;;;;;;6.90;77.00;;;10.32;46.16;97794.63;5047060;28;19928;-48
2023/03/29 02:02:40;;;;;;;;;;;6.90;76.20;;;10.35;45.89;97792.47;5067432;28;19921;-50
2023/03/29 02:05:09;;;;;;;;;;;6.90;76.20;;;10.34;46.25;97779.31;5039024;28;19920;-49
2023/03/29 02:07:37;;;;;;;;;;;6.90;76.60;;;10.27;45.80;97771.06;5056142;28;19924;-45
2023/03/29 02:10:06;;;;;;;;;;;6.90;76.60;;;10.18;46.20;97766.72;5054093;28;19920;-46
2023/03/29 02:12:33;;;;;;;;;;;6.90;77.00;;;10.16;46.38;97758.88;5044087;28;19928;-46
2023/03/29 02:15:01;;;;;;;;;;;6.90;77.40;;;10.10;46.34;97775.47;5043698;28;19921;-43
2023/03/29 02:17:29;;;;;;;;;;;6.80;76.70;;;10.06;46.42;97779.41;5039029;28;20285;-46
2023/03/29 02:20:13;;;;;;;;;;;6.80;76.70;;;10.09;46.05;97786.25;5030170;28;19924;-50
2023/03/29 02:23:11;;;;;;;;;;;6.80;76.90;;;10.13;46.39;97795.59;5045798;28;19963;-44
2023/03/29 02:25:39;;;;;;;;;;;6.70;77.50;;;10.17;46.25;97787.16;5043020;28;19920;-45
2023/03/29 02:28:07;;;;;;;;;;;6.70;77.90;;;10.23;46.19;97788.34;5062604;28;19925;-47
2023/03/29 02:30:52;;;;;;;;;;;6.70;77.90;;;10.23;45.94;97786.50;5062741;28;19984;-50
2023/03/29 02:33:30;;;;;;;;;;;6.80;77.70;;;10.24;46.12;97784.72;5051561;28;19920;-45
2023/03/29 02:36:02;;;;;;;;;;;6.70;77.80;;;10.24;45.61;97777.56;5059686;28;19924;-45
2023/03/29 02:38:30;;;;;;;;;;;6.70;77.80;;;10.21;45.84;97769.88;5055847;28;20284;-45
2023/03/29 02:40:58;;;;;;;;;;;6.60;78.20;;;10.19;45.78;97760.38;5063136;28;19943;-45
2023/03/29 02:43:27;;;;;;;;;;;6.60;78.10;;;10.18;45.60;97756.06;5062788;28;19931;-45
2023/03/29 02:45:55;;;;;;;;;;;6.60;78.10;;;10.15;45.70;97746.56;5047200;28;19978;-43
2023/03/29 02:48:25;;;;;;;;;;;6.60;78.20;;;10.12;45.58;97732.72;5054841;28;19920;-46
2023/03/29 02:50:56;;;;;;;;;;;6.50;78.20;;;10.08;46.02;97739.34;5054360;28;19927;-46
2023/03/29 02:53:29;;;;;;;;;;;6.50;77.90;;;10.02;45.53;97731.03;5021740;28;19927;-48
2023/03/29 02:55:56;;;;;;;;;;;6.50;78.20;;;9.98;46.01;97731.47;5038559;28;19928;-46
2023/03/29 02:58:25;;;;;;;;;;;6.40;78.10;;;9.94;46.13;97724.81;5045735;28;19920;-46
2023/03/29 03:00:54;;;;;;;;;;;6.40;78.10;;;9.92;45.80;97716.16;5061921;28;19939;-46
2023/03/29 03:03:22;;;;;;;;;;;6.30;78.40;;;9.87;45.91;97721.94;5046061;28;19927;-49
2023/03/29 03:05:51;;;;;;;;;;;6.30;79.30;;;9.81;46.04;97712.75;5046087;28;19920;-49
2023/03/29 03:08:18;;;;;;;;;;;6.20;78.60;;;9.78;46.18;97710.38;5043276;28;20303;-45
2023/03/29 03:10:47;;;;;;;;;;;6.20;78.70;;;9.77;46.16;97714.06;5059088;28;19920;-46
2023/03/29 03:13:14;;;;;;;;;;;6.20;78.50;;;9.80;46.26;97721.72;5044089;28;19921;-45
2023/03/29 03:15:41;;;;;;;;;;;6.30;77.80;;;9.82;46.74;97725.03;5050932;28;19925;-45
2023/03/29 03:18:09;;;;;;;;;;;6.30;77.40;;;9.84;46.58;97728.38;5050489;28;20285;-44
2023/03/29 03:20:37;;;;;;;;;;;6.30;77.60;;;9.85;46.44;97730.06;5026484;28;19947;-46
2023/03/29 03:23:04;;;;;;;;;;;6.30;77.30;;;9.87;46.68;97721.94;5058774;28;19921;-44
2023/03/29 03:25:34;;;;;;;;;;;6.40;77.20;;;9.92;46.50;97727.59;5037555;28;19920;-45
2023/03/29 03:28:01;;;;;;;;;;;6.30;77.40;;;9.96;46.55;97728.97;5061916;28;20292;-47
2023/03/29 03:30:29;;;;;;;;;;;6.40;76.90;;;9.93;46.55;97737.28;5061726;28;19921;-47
2023/03/29 03:33:15;;;;;;;;;;;6.40;76.60;;;9.92;46.67;97722.28;5059198;28;19920;-47
2023/03/29 03:36:18;;;;;;;;;;;6.40;76.90;;;9.98;46.43;97723.50;5062016;28;19925;-43
2023/03/29 03:38:46;;;;;;;;;;;6.40;76.40;;;10.02;46.57;97716.88;5053288;28;19924;-46
2023/03/29 03:41:14;;;;;;;;;;;6.50;75.20;;;10.05;46.13;97717.41;5045212;28;19947;-44
2023/03/29 03:43:44;;;;;;;;;;;6.50;73.90;;;10.07;46.25;97716.41;5063734;28;19920;-46
2023/03/29 03:46:12;;;;;;;;;;;6.60;73.60;;;10.12;46.24;97720.28;5060815;28;20276;-45
2023/03/29 03:48:40;;;;;;;;;;;6.60;72.90;;;10.17;45.86;97717.97;5041346;28;19921;-45
2023/03/29 03:51:10;;;;;;;;;;;6.60;72.70;;;10.17;45.79;97728.63;5042514;28;19928;-47
2023/03/29 03:53:38;;;;;;;;;;;6.60;72.30;;;10.18;45.47;97719.66;5063135;28;20307;-45
2023/03/29 03:56:12;;;;;;;;;;;6.70;72.10;;;10.21;45.48;97724.66;5062809;28;19927;-45
2023/03/29 03:58:58;;;;;;;;;;;6.70;72.10;;;10.24;45.85;97732.31;5061278;28;19921;-47
2023/03/29 04:01:27;;;;;;;;;;;6.70;71.80;;;10.26;45.69;97724.19;5045150;28;19920;-50
2023/03/29 04:04:11;;;;;;;;;;;6.80;71.10;;;10.30;45.51;97727.38;5061402;28;19920;-48
2023/03/29 04:06:42;;;;;;;;;;;6.80;70.30;;;10.31;45.62;97726.41;5037018;28;19932;-46
2023/03/29 04:09:30;;;;;;;;;;;6.80;70.10;;;10.35;45.47;97733.94;5070917;28;19920;-46
2023/03/29 04:12:12;;;;;;;;;;;6.80;69.80;;;10.38;45.25;97736.25;5034280;28;20411;-44
2023/03/29 04:14:42;;;;;;;;;;;6.90;69.20;;;10.40;45.16;97734.28;5049793;28;20308;-50
2023/03/29 04:17:16;;;;;;;;;;;6.90;68.50;;;10.45;44.94;97733.81;5066320;28;19925;-47
2023/03/29 04:19:53;;;;;;;;;;;7.00;68.10;;;10.50;44.79;97728.00;5061558;28;19920;-47
2023/03/29 04:22:21;;;;;;;;;;;7.00;67.50;;;10.54;44.90;97726.69;5042090;28;19920;-47
2023/03/29 04:24:48;;;;;;;;;;;7.10;66.60;;;10.61;44.65;97733.06;5057838;28;20304;-47
2023/03/29 04:27:33;;;;;;;;;;;7.20;66.10;;;10.63;44.22;97729.22;5049011;28;19928;-44
2023/03/29 04:30:06;;;;;;;;;;;7.20;65.60;;;10.70;44.05;97733.91;5049782;28;20303;-47
2023/03/29 04:32:52;;;;;;;;;;;7.20;65.50;;;10.73;44.10;97742.44;5062069;28;19921;-46
2023/03/29 04:35:20;;;;;;;;;;;7.30;65.10;;;10.79;44.09;97733.78;5053838;28;19920;-49
2023/03/29 04:37:49;;;;;;;;;;;7.30;64.60;;;10.81;43.69;97738.97;5048352;28;19931;-45
2023/03/29 04:40:18;;;;;;;;;;;7.30;64.30;;;10.86;43.73;97733.13;5056567;28;19920;-46
2023/03/29 04:42:56;;;;;;;;;;;7.40;64.60;;;10.87;43.68;97730.31;5065727;28;19920;-51
2023/03/29 04:45:23;;;;;;;;;;;7.40;64.60;;;10.91;43.73;97731.66;5064270;28;19928;-47
2023/03/29 04:48:05;;;;;;;;;;;7.40;65.50;;;10.94;44.00;97738.53;5061890;28;19947;-44
2023/03/29 04:50:35;;;;;;;;;;;7.40;64.80;;;10.97;43.82;97735.53;5065476;28;19926;-48
2023/03/29 04:53:03;;;;;;;;;;;7.40;64.30;;;11.00;43.90;97730.72;5053302;28;19928;-46
2023/03/29 04:55:31;;;;;;;;;;;7.40;64.30;;;11.04;43.52;97729.38;5064711;28;19928;-48
2023/03/29 04:58:01;;;;;;;;;;;7.50;64.30;;;11.08;43.38;97737.88;5048131;28;19920;-44
2023/03/29 05:00:33;;;;;;;;;;;7.50;64.10;;;11.11;43.71;97742.91;5028422;28;19928;-49
2023/03/29 05:03:10;;;;;;;;;;;7.50;64.00;;;11.11;43.19;97737.59;5063971;28;19928;-46
2023/03/29 05:05:41;;;;;;;;;;;7.60;64.10;;;11.13;43.45;97734.75;5047772;28;19932;-45
2023/03/29 05:08:10;;;;;;;;;;;7.60;64.30;;;11.14;43.34;97737.25;5047791;28;19920;-46
2023/03/29 05:10:57;;;;;;;;;;;7.60;64.40;;;11.14;43.64;97737.25;5062466;28;20376;-47
2023/03/29 05:13:26;;;;;;;;;;;7.60;64.60;;;11.16;43.42;97740.56;5063988;28;19928;-44
2023/03/29 05:15:55;;;;;;;;;;;7.60;64.80;;;11.18;43.25;97740.41;5047757;28;19921;-48
2023/03/29 05:18:24;;;;;;;;;;;7.60;65.00;;;11.23;43.32;97738.09;5060944;28;20308;-45
2023/03/29 05:20:52;;;;;;;;;;;7.70;65.40;;;11.26;43.92;97743.09;5060679;28;19927;-47
2023/03/29 05:23:21;;;;;;;;;;;7.60;65.20;;;11.26;43.12;97745.75;5046056;28;19920;-43
2023/03/29 05:26:08;;;;;;;;;;;7.70;65.10;;;11.27;43.31;97738.63;5067075;28;20347;-44
2023/03/29 05:28:37;;;;;;;;;;;7.70;64.60;;;11.27;43.58;97741.28;5039966;28;19928;-46
2023/03/29 05:31:04;;;;;;;;;;;7.70;64.40;;;11.29;43.54;97744.63;5064760;28;20261;-45
2023/03/29 05:33:35;;;;;;;;;;;7.70;64.30;;;11.32;43.08;97744.28;5051645;28;19927;-48
2023/03/29 05:36:09;;;;;;;;;;;7.80;64.30;;;11.35;43.15;97751.97;5065353;28;20298;-44
2023/03/29 05:38:45;;;;;;;;;;;7.80;64.00;;;11.36;42.93;97737.63;5037816;28;19930;-44
2023/03/29 05:41:14;;;;;;;;;;;7.80;63.20;;;11.38;43.23;97749.81;5069138;28;19927;-43
2023/03/29 05:43:50;;;;;;;;;;;7.80;63.20;;;11.39;42.92;97746.13;5062501;28;19939;-43
2023/03/29 05:46:21;;;;;;;;;;;7.80;63.10;;;11.34;42.76;97747.59;5052382;28;19928;-43
2023/03/29 05:48:52;;;;;;;;;;;7.80;63.40;;;11.27;42.84;97755.44;5044051;28;19921;-45
2023/03/29 05:51:23;;;;;;;;;;;7.70;64.00;;;11.30;43.17;97754.25;5052407;28;20311;-45
2023/03/29 05:53:54;;;;;;;;;;;7.80;64.40;;;11.35;43.18;97752.78;5047884;28;19920;-43
2023/03/29 05:56:22;;;;;;;;;;;7.80;64.60;;;11.38;43.02;97748.94;5060472;28;19924;-48
2023/03/29 05:58:52;;;;;;;;;;;7.80;65.00;;;11.39;43.27;97751.44;5049082;28;20410;-44
2023/03/29 06:01:23;;;;;;;;;;;7.80;64.50;;;11.41;42.99;97752.13;5037939;28;19920;-45
2023/03/29 06:03:59;;;;;;;;;;;7.80;64.50;;;11.41;42.90;97756.63;5056716;28;19920;-46
2023/03/29 06:06:36;;;;;;;;;;;7.70;64.50;;;11.42;43.25;97758.31;5047178;28;20392;-45
2023/03/29 06:09:04;;;;;;;;;;;7.80;64.80;;;11.43;43.19;97762.63;5062966;28;19920;-43
2023/03/29 06:11:39;;;;;;;;;;;7.80;64.60;;;11.45;42.83;97759.81;5031597;28;20292;-48
2023/03/29 06:14:36;;;;;;;;;;;7.80;64.40;;;11.48;43.39;97759.50;5056130;28;19920;-43
2023/03/29 06:17:18;;;;;;;;;;;7.80;64.20;;;11.46;42.81;97769.44;5054812;28;19943;-44
2023/03/29 06:19:48;;;;;;;;;;;7.90;64.30;;;11.42;43.12;97766.31;5050917;28;19928;-45
2023/03/29 06:22:17;;;;;;;;;;;7.80;65.00;;;11.45;43.40;97771.28;5051194;28;19920;-43
2023/03/29 06:24:45;;;;;;;;;;;7.80;65.00;;;11.49;43.32;97766.47;5044430;28;19920;-45
2023/03/29 06:27:22;;;;;;;;;;;7.80;65.00;;;11.53;43.18;97768.63;5059816;28;20006;-45
2023/03/29 06:29:50;;;;;;;;;;;7.90;64.80;;;11.50;42.84;97768.97;5042252;28;20335;-44
2023/03/29 06:32:18;;;;;;;;;;;7.90;64.40;;;11.50;43.07;97770.81;5067141;28;19928;-43
2023/03/29 06:34:49;;;;;;;;;;;7.90;64.40;;;11.51;43.29;97769.81;5027973;28;19939;-45
2023/03/29 06:37:23;;;;;;;;;;;7.90;64.60;;;11.56;42.81;97767.50;5062698;28;19939;-45
2023/03/29 06:40:00;;;;;;;;;;;7.90;65.70;;;11.60;43.13;97775.00;5045596;28;19925;-47
2023/03/29 06:42:34;;;;;;;;;;;8.00;64.70;;;11.63;43.21;97782.69;5061405;28;19921;-43
2023/03/29 06:45:33;;;;;;;;;;;8.00;64.60;;;11.71;43.26;97779.19;5047403;28;19920;-45
2023/03/29 06:48:05;;;;;;;;;;;8.20;64.90;;;11.78;43.35;97769.50;5046437;28;19931;-45
2023/03/29 06:50:33;;;;;;;;;;;8.30;64.40;;;11.81;43.17;97777.19;5063010;28;20369;-46
2023/03/29 06:53:09;;;;;;;;;;;8.30;64.00;;;11.90;43.04;97779.88;5050791;28;20076;-46
2023/03/29 06:55:38;;;;;;;;;;;8.40;63.80;;;11.98;42.91;97778.06;5061445;28;19921;-44
2023/03/29 06:58:22;;;;;;;;;;;8.50;62.60;;;12.07;42.62;97781.53;5052203;28;19921;-46
2023/03/29 07:00:50;;;;;;;;;;;8.60;61.50;;;12.12;42.57;97781.06;5065597;28;19927;-50
2023/03/29 07:03:27;;;;;;;;;;;8.60;61.10;;;12.13;42.31;97780.88;5061048;28;19932;-46
2023/03/29 07:06:08;;;;;;;;;;;8.70;60.90;;;12.20;42.69;97775.72;5045396;28;19920;-44
2023/03/29 07:08:46;;;;;;;;;;;8.70;60.80;;;12.27;42.60;97784.72;5041657;28;20380;-47
2023/03/29 07:11:25;;;;;;;;;;;8.80;60.70;;;12.32;42.34;97784.22;5050617;28;19920;-45
2023/03/29 07:13:57;;;;;;;;;;;8.80;60.70;;;12.34;42.54;97791.03;5053958;28;19921;-44
2023/03/29 07:18:29;;;;;;;4.80;2.40;;;8.80;59.70;;;12.34;42.36;97791.03;5068086;28;20353;-43
2023/03/29 07:20:57;;;;;;;2.97;1.97;;;9.00;61.80;;;12.35;42.26;97792.72;5046925;28;20615;-42
2023/03/29 07:23:25;;;;;;;4.53;2.23;;;9.00;60.70;;;12.40;42.15;97794.88;5063294;28;20140;-44
2023/03/29 07:25:52;;;;;;;5.30;2.13;;;9.10;60.60;;;12.44;42.27;97795.38;5047009;28;20427;-44
2023/03/29 07:28:20;;;;;;;3.20;1.93;;;9.20;60.70;;;12.48;42.15;97797.53;5055006;28;20049;-42
2023/03/29 07:30:48;;;;;;;2.77;1.80;;;9.20;60.50;;;12.52;41.82;97803.34;5063923;28;20505;-44
2023/03/29 07:33:19;;;;;;;5.13;1.90;;;9.30;60.60;;;12.58;42.13;97798.19;5038092;28;20536;-44
2023/03/29 07:35:54;;;;;;;4.10;1.70;;;9.40;60.50;;;12.64;41.86;97801.16;5039944;28;20053;-43
2023/03/29 07:38:22;;;;;;;2.97;1.77;;;9.40;60.10;;;12.69;41.98;97805.00;5054223;28;20037;-49
2023/03/29 07:41:06;;;;;;;3.13;1.57;;;9.50;60.20;;;12.73;41.87;97811.66;5040505;28;20088;-43
2023/03/29 07:43:41;;;;;;;2.30;1.90;;;9.50;60.20;;;12.78;41.78;97816.50;5042074;28;20041;-43
2023/03/29 07:46:10;;;;;;;2.30;1.87;;;9.50;60.30;;;12.80;41.92;97811.81;5055720;28;20417;-44
2023/03/29 07:48:39;;;;;;;3.93;2.20;;;9.60;60.50;;;12.82;41.44;97817.81;5039933;28;20053;-44
2023/03/29 07:51:09;;;;;;;2.33;1.53;;;9.60;60.30;;;12.85;41.47;97816.63;5038058;28;20049;-44
2023/03/29 07:53:53;;;;;;;1.57;1.30;;;9.60;59.30;;;12.89;41.37;97815.28;5052031;28;20049;-47
2023/03/29 07:56:30;;;;;;;3.03;1.73;;;9.70;59.40;;;12.92;41.11;97807.75;5037279;28;20049;-44
2023/03/29 07:59:15;;;;;;;2.23;2.00;;;9.70;59.10;;;12.96;41.39;97811.75;5056071;28;20084;-44
2023/03/29 08:01:47;;;;;;;2.63;1.60;;;9.70;59.40;;;13.00;41.51;97812.25;5039571;28;20492;-48
2023/03/29 08:04:29;;;;;;;1.53;1.30;;;9.80;59.50;;;13.06;41.48;97813.41;5041365;28;20516;-42
2023/03/29 08:07:18;;;;;;;1.90;1.27;;;9.90;59.50;;;13.14;41.52;97805.34;5041173;28;20529;-42
2023/03/29 08:10:08;;;;;;;1.87;1.40;;;10.00;59.30;;;13.24;41.52;97805.13;5053586;28;20080;-42
2023/03/29 08:12:55;;;;;;;2.97;1.40;;;10.10;59.40;;;13.35;41.38;97807.47;5053701;28;20105;-45
2023/03/29 08:15:30;;;;;;;2.33;1.60;;;10.20;59.20;;;13.45;41.23;97807.25;5053533;28;20052;-42
2023/03/29 08:17:58;;;;;;;3.50;1.83;;;10.40;58.80;;;13.53;40.96;97807.19;5056318;28;20045;-43
2023/03/29 08:20:26;;;;;;;3.80;1.70;;;10.40;58.30;;;13.59;41.15;97810.00;5056265;28;20045;-45
2023/03/29 08:22:59;;;;;;;4.03;1.67;;;10.50;58.70;;;13.69;41.11;97806.28;5055519;28;20045;-46
2023/03/29 08:25:38;;;;;;;2.53;1.90;;;10.60;58.50;;;13.74;41.28;97807.38;5040724;28;20064;-42
2023/03/29 08:28:08;;;;;;;1.90;1.60;;;10.60;58.70;;;13.76;41.15;97808.06;5036408;28;20049;-42
2023/03/29 08:30:46;;;;;;;3.43;2.43;;;10.70;58.90;;;13.79;41.21;97805.03;5041439;28;20052;-44
2023/03/29 08:33:15;;;;;;;3.20;1.70;;;10.70;59.00;;;13.81;41.50;97804.03;5026112;28;20379;-42
2023/03/29 08:35:45;;;;;;;3.93;2.87;;;10.80;59.10;;;13.82;41.48;97806.50;5042157;28;20049;-42
2023/03/29 08:38:26;;;;;;;2.87;2.20;;;10.80;59.10;;;13.86;41.60;97802.50;5025775;28;20065;-42
2023/03/29 08:40:55;;;;;;;4.50;2.33;;;10.80;59.10;;;13.87;41.15;97803.31;5038056;28;20531;-44
2023/03/29 08:43:57;;;;;;;2.97;1.83;;;10.80;58.80;;;13.93;41.24;97808.78;5042378;28;20042;-42
2023/03/29 08:47:19;;;;;;;2.75;1.60;;;10.90;58.80;;;14.04;41.26;97804.84;5030722;28;20065;-45
2023/03/29 08:49:53;;;;;;;4.10;1.80;;;10.90;59.00;;;14.11;41.19;97803.13;5026229;28;20050;-43
2023/03/29 08:52:43;;;;;;;3.23;1.70;;;11.00;59.10;;;14.20;41.31;97808.41;5040764;28;20046;-42
2023/03/29 08:55:44;;;;;;;3.83;1.70;;;11.10;59.00;;;14.28;41.24;97805.66;5037199;28;20076;-47
2023/03/29 08:58:37;;;;;;;5.60;2.10;;;11.10;58.90;;;14.33;41.15;97800.59;5028990;28;20050;-45
2023/03/29 09:01:14;;;;;;;5.93;2.10;;;11.20;58.70;;;14.38;41.42;97798.19;5041779;28;20068;-45
2023/03/29 09:04:08;;;;;;;2.27;1.80;;;11.30;58.70;;;14.44;41.22;97789.44;5025781;28;20549;-45
2023/03/29 09:06:49;;;;;;;;;;;11.40;58.20;;;14.58;40.96;97790.53;5043069;28;20049;-48
2023/03/29 09:09:28;;;;;;;3.53;1.70;;;11.50;57.10;;;14.64;40.67;97789.78;5025541;28;20411;-43
2023/03/29 09:12:23;;;;;;;2.83;1.60;;;11.50;57.80;;;14.62;41.01;97790.97;5025413;28;20056;-44
2023/03/29 09:15:20;;;;;;;4.53;2.30;;;11.60;57.20;;;14.68;40.72;97792.94;5026328;28;20071;-45
2023/03/29 09:18:28;;;;;;;6.70;2.08;;;11.70;56.40;;;14.74;40.72;97797.56;5025829;28;20045;-45
2023/03/29 09:21:13;;;;;;;2.87;1.87;;;11.70;57.00;;;14.77;40.44;97792.66;5027754;28;20038;-46
2023/03/29 09:24:07;;;;;;;3.23;1.80;;;11.70;56.60;;;14.82;40.26;97791.28;5040339;28;20064;-47
2023/03/29 09:27:16;;;;;;;3.33;2.00;;;11.80;55.00;;;14.87;40.23;97780.81;5039310;28;20045;-46
2023/03/29 09:30:15;;;;;;;2.83;1.80;;;11.90;55.90;;;14.92;40.33;97773.06;5022298;28;20401;-44
2023/03/29 09:33:41;;;;;;;3.77;1.90;;;12.00;55.80;;;14.94;40.52;97779.06;5021754;28;20311;-45
2023/03/29 09:36:32;;;;;;;3.97;2.60;;;12.00;55.70;;;15.10;40.50;97772.66;5006822;28;20052;-45
2023/03/29 09:39:00;;;;;;;3.20;2.22;;;12.20;56.40;;;15.23;39.74;97778.19;5009156;28;20056;-44
2023/03/29 09:41:55;;;;;;;3.60;1.95;;;12.30;55.70;;;15.33;39.74;97775.22;5039054;28;20046;-44
2023/03/29 09:44:30;;;;;;;6.53;2.78;;;12.40;54.20;;;15.42;39.39;97774.09;5040900;28;20520;-43
2023/03/29 09:47:18;;;;;;;2.17;1.85;;;12.50;54.80;;;15.51;39.41;97767.59;5024722;28;20521;-46
2023/03/29 09:49:51;;;;;;;3.67;2.00;;;12.60;54.30;;;15.60;39.06;97773.66;5038907;28;20497;-44
2023/03/29 09:52:19;;;;;;;5.13;3.05;;;12.70;54.00;;;15.69;38.97;97777.91;5039786;28;20058;-49
2023/03/29 09:55:00;;;;;;;2.50;1.80;;;12.80;54.10;;;15.78;38.63;97786.72;5025042;28;20041;-46
2023/03/29 09:57:48;;;;;;;3.72;1.80;;;12.80;54.40;;;15.85;38.73;97784.06;5038696;28;20417;-45
2023/03/29 10:00:18;;;;;;;4.32;2.10;;;12.90;54.20;;;15.93;38.62;97783.94;5039042;28;20056;-43
2023/03/29 10:02:51;;;;;;;4.75;2.40;;;13.00;53.90;;;16.01;38.77;97778.44;5023752;28;20045;-47
2023/03/29 10:05:25;;;;;;;11.13;3.35;;;13.10;53.60;;;16.10;38.12;97771.91;5040096;28;20567;-45
2023/03/29 10:07:56;;;;;;;3.70;2.50;;;13.10;53.10;;;16.24;38.11;97769.34;5019328;28;20076;-42
2023/03/29 10:10:32;;;;;;;9.68;3.00;;;13.30;53.10;;;16.31;38.24;97770.22;5039760;28;20421;-47
2023/03/29 10:13:05;;;;;;;7.28;2.35;;;13.40;52.30;;;16.32;37.59;97756.63;5040154;28;20517;-45
2023/03/29 10:15:32;;;;;;;16.75;4.20;;;13.30;51.30;;;16.34;37.69;97751.03;5039456;28;20048;-45
2023/03/29 10:18:05;;;;;;;3.63;2.08;;;13.40;52.10;;;16.37;37.29;97757.88;5022201;28;20068;-47
2023/03/29 10:20:38;;;;;;;6.35;2.28;;;13.30;51.80;;;16.43;37.62;97762.47;5031270;28;20046;-43
2023/03/29 10:23:09;;;;;;;6.00;2.22;;;13.40;51.90;;;16.42;37.04;97755.41;5031573;28;20038;-45
2023/03/29 10:25:40;;;;;;;6.20;2.05;;;13.30;51.80;;;16.41;37.44;97757.28;5031465;28;20052;-46
2023/03/29 10:28:17;;;;;;;12.83;3.10;;;13.40;52.20;;;16.50;37.73;97752.59;5031512;28;20045;-43
2023/03/29 10:30:52;;;;;;;2.22;1.50;;;13.40;52.00;;;16.53;37.52;97762.94;5029932;28;20056;-42
2023/03/29 10:33:23;;;;;;;16.83;4.20;;;13.50;51.90;;;16.59;37.61;97754.09;5031232;28;20072;-49
2023/03/29 10:35:50;;;;;;;2.78;2.00;;;13.60;52.00;;;16.68;37.37;97755.59;5029952;28;20053;-44
2023/03/29 10:38:21;;;;;;;2.60;1.73;;;13.80;51.60;;;16.76;37.15;97751.09;5030051;28;20516;-45
2023/03/29 10:40:51;;;;;;;4.00;2.03;;;13.90;51.40;;;16.88;37.36;97742.28;5029712;28;20037;-43
2023/03/29 10:43:25;;;;;;;4.57;2.08;;;14.00;51.40;;;16.94;36.96;97743.34;5030495;28;20049;-46
2023/03/29 10:45:56;;;;;;;2.78;1.95;;;14.10;51.00;;;16.95;36.82;97736.97;5022040;28;20045;-44
2023/03/29 10:48:29;;;;;;;5.35;2.22;;;14.00;50.40;;;16.92;36.79;97734.66;5013612;28;20045;-47
2023/03/29 10:51:00;;;;;;;2.40;1.90;;;13.90;50.40;;;16.86;36.95;97730.91;5023122;28;20045;-46
2023/03/29 10:53:34;;;;;;;3.03;1.75;;;13.90;50.70;;;16.78;36.64;97727.53;5030816;28;20053;-44
2023/03/29 10:56:29;;;;;;;2.28;1.67;;;13.90;49.80;;;16.65;37.05;97733.66;5031069;28;20413;-47
2023/03/29 10:59:28;;;;;;;2.97;1.98;;;13.80;50.40;;;16.62;37.15;97726.84;5022636;28;20048;-45
2023/03/29 11:02:14;;;;;;;2.63;1.63;;;13.70;49.80;;;16.65;36.95;97720.22;5022647;28;20048;-46
2023/03/29 11:05:01;;;;;;;2.30;2.10;;;13.70;49.20;;;16.66;37.05;97713.84;5030781;28;20060;-44
2023/03/29 11:07:47;;;;;;;13.02;2.65;;;13.70;50.50;;;16.68;37.12;97711.78;5030819;28;20045;-47
2023/03/29 11:10:37;;;;;;;2.80;1.67;;;13.80;50.80;;;16.69;37.10;97708.03;5029509;28;20056;-45
2023/03/29 11:13:19;;;;;;;2.17;1.60;;;13.80;50.50;;;16.69;36.67;97710.72;5023854;28;20061;-44
2023/03/29 11:16:15;;;;;;;2.88;1.70;;;13.80;49.70;;;16.55;36.36;97699.06;5030822;28;20054;-47
2023/03/29 12:13:24;;;;;;;2.60;2.00;;;13.70;53.50;;;16.82;39.67;97696.56;5101442;27;20381;-43
2023/03/29 12:16:09;;;;;;;4.80;2.40;;;15.30;50.70;;;17.46;38.75;97690.78;5074283;28;20420;-46
2023/03/29 12:18:48;;;;;;;2.78;2.03;;;15.50;50.40;;;17.95;37.44;97685.25;5076965;28;20521;-45
2023/03/29 12:21:20;;;;;;;4.50;2.53;;;15.70;48.50;;;18.20;36.80;97675.50;5079127;28;20048;-44
2023/03/29 12:23:50;;;;;;;5.50;2.20;;;15.80;49.00;;;18.45;36.50;97691.84;5092017;28;20047;-43
2023/03/29 12:26:41;;;;;;;3.60;2.08;;;15.90;48.90;;;18.68;36.07;97683.28;5091680;28;20539;-43
2023/03/29 12:29:19;;;;;;;3.92;2.05;;;16.10;48.30;;;18.89;35.56;97694.88;5076344;28;20044;-46
2023/03/29 12:31:58;;;;;;;3.08;1.88;;;16.20;46.70;;;18.85;34.82;97686.38;5077989;28;20063;-44
2023/03/29 12:35:05;;;;;;;4.45;2.13;;;16.20;44.80;;;18.81;34.50;97695.13;5075940;28;20047;-44